createdAt,value
2023-04-25T00:01:23.581Z,3.50
2023-04-25T00:03:50.759Z,3.53
2023-04-25T00:06:18.226Z,3.10
2023-04-25T00:08:45.618Z,3.40
2023-04-25T00:11:12.460Z,3.20
2023-04-25T00:13:39.273Z,3.20
2023-04-25T00:16:06.541Z,2.83
2023-04-25T00:18:33.363Z,3.20
2023-04-25T00:21:00.553Z,4.40
2023-04-25T00:23:27.374Z,3.03
2023-04-25T00:25:54.156Z,3.70
2023-04-25T00:28:20.978Z,3.50
2023-04-25T00:30:47.814Z,3.50
2023-04-25T00:33:14.640Z,3.20
2023-04-25T00:35:41.566Z,2.73
2023-04-25T00:38:08.471Z,3.37
2023-04-25T00:40:36.138Z,3.60
2023-04-25T00:43:02.943Z,4.70
2023-04-25T00:45:30.614Z,3.60
2023-04-25T00:47:58.488Z,3.23
2023-04-25T00:50:26.758Z,3.20
2023-04-25T00:52:53.580Z,3.80
2023-04-25T00:55:21.049Z,3.60
2023-04-25T00:57:48.314Z,4.07
2023-04-25T01:00:15.912Z,4.03
2023-04-25T01:02:43.579Z,2.97
2023-04-25T01:05:11.481Z,3.63
2023-04-25T01:07:38.909Z,3.43
2023-04-25T01:10:07.411Z,4.63
2023-04-25T01:12:35.977Z,3.83
2023-04-25T01:15:03.033Z,4.30
2023-04-25T01:17:30.162Z,3.90
2023-04-25T01:19:57.103Z,4.17
2023-04-25T01:22:24.451Z,4.50
2023-04-25T01:24:51.842Z,3.47
2023-04-25T01:27:19.435Z,3.83
2023-04-25T01:29:47.106Z,4.10
2023-04-25T01:32:15.643Z,3.23
2023-04-25T01:34:42.966Z,4.13
2023-04-25T01:37:09.866Z,3.60
2023-04-25T01:39:36.817Z,4.10
2023-04-25T01:42:03.995Z,4.17
2023-04-25T01:44:30.993Z,3.93
2023-04-25T01:46:57.949Z,3.57
2023-04-25T01:49:24.939Z,3.70
2023-04-25T01:51:51.958Z,4.73
2023-04-25T01:54:20.223Z,4.40
2023-04-25T01:56:52.444Z,3.63
2023-04-25T01:59:20.291Z,4.20
2023-04-25T02:01:47.113Z,4.00
2023-04-25T02:04:14.348Z,3.97
2023-04-25T02:06:41.534Z,3.73
2023-04-25T02:09:08.377Z,4.60
2023-04-25T02:11:35.174Z,4.10
2023-04-25T02:14:01.981Z,4.10
2023-04-25T02:16:28.989Z,3.43
2023-04-25T02:18:55.862Z,4.10
2023-04-25T02:21:22.768Z,4.20
2023-04-25T02:23:49.754Z,3.93
2023-04-25T02:26:16.863Z,3.93
2023-04-25T02:28:43.788Z,4.33
2023-04-25T02:31:10.723Z,4.33
2023-04-25T02:33:37.586Z,3.77
2023-04-25T02:36:04.997Z,3.70
2023-04-25T02:38:31.809Z,4.23
2023-04-25T02:40:58.684Z,3.90
2023-04-25T02:43:25.470Z,3.50
2023-04-25T02:45:52.322Z,3.80
2023-04-25T02:48:19.276Z,3.50
2023-04-25T02:50:46.317Z,3.73
2023-04-25T02:53:13.182Z,3.93
2023-04-25T02:55:40.117Z,4.07
2023-04-25T02:58:06.952Z,4.33
2023-04-25T03:00:33.832Z,3.47
2023-04-25T03:03:00.766Z,4.40
2023-04-25T03:05:27.616Z,3.90
2023-04-25T03:07:54.476Z,4.00
2023-04-25T03:10:21.288Z,4.40
2023-04-25T03:12:48.172Z,3.90
2023-04-25T03:15:14.996Z,4.40
2023-04-25T03:17:41.857Z,3.83
2023-04-25T03:20:10.040Z,4.53
2023-04-25T03:22:36.939Z,4.13
2023-04-25T03:25:04.357Z,3.87
2023-04-25T03:27:31.178Z,3.87
2023-04-25T03:29:58.009Z,3.70
2023-04-25T03:32:24.828Z,4.07
2023-04-25T03:34:51.688Z,5.50
2023-04-25T03:37:18.602Z,4.67
2023-04-25T03:39:45.366Z,5.00
2023-04-25T03:42:12.212Z,5.10
2023-04-25T03:44:39.065Z,5.87
2023-04-25T03:47:05.838Z,5.10
2023-04-25T03:49:35.096Z,4.97
2023-04-25T03:52:02.564Z,5.20
2023-04-25T03:54:29.509Z,4.83
2023-04-25T03:56:56.359Z,5.47
2023-04-25T03:59:23.198Z,5.57
2023-04-25T04:01:49.992Z,4.60
2023-04-25T04:04:17.056Z,5.47
2023-04-25T04:06:44.099Z,5.67
2023-04-25T04:09:11.203Z,5.23
2023-04-25T04:11:39.530Z,6.13
2023-04-25T04:14:08.175Z,6.03
2023-04-25T04:16:35.324Z,5.77
2023-04-25T04:19:02.405Z,6.40
2023-04-25T04:21:29.238Z,7.83
2023-04-25T04:23:56.085Z,6.53
2023-04-25T04:26:22.956Z,7.00
2023-04-25T04:28:52.960Z,7.23
2023-04-25T04:31:19.896Z,6.77
2023-04-25T04:33:47.241Z,6.70
2023-04-25T04:36:14.434Z,7.10
2023-04-25T04:38:42.068Z,7.83
2023-04-25T04:41:09.603Z,6.83
2023-04-25T04:43:36.496Z,8.07
2023-04-25T04:46:04.402Z,7.10
2023-04-25T04:48:33.307Z,6.77
2023-04-25T04:51:00.229Z,7.50
2023-04-25T04:53:27.965Z,6.43
2023-04-25T04:55:55.129Z,7.50
2023-04-25T04:58:22.941Z,7.00
2023-04-25T05:00:49.813Z,6.80
2023-04-25T05:03:17.527Z,6.80
2023-04-25T05:05:44.775Z,5.80
2023-04-25T05:08:11.659Z,7.07
2023-04-25T05:10:38.426Z,6.37
2023-04-25T05:13:05.236Z,6.00
2023-04-25T05:15:32.106Z,6.30
2023-04-25T05:17:59.085Z,6.10
2023-04-25T05:20:25.927Z,6.10
2023-04-25T05:22:52.807Z,6.30
2023-04-25T05:25:19.781Z,7.40
2023-04-25T05:27:46.704Z,6.83
2023-04-25T05:30:13.622Z,7.07
2023-04-25T05:32:40.490Z,6.47
2023-04-25T05:35:07.873Z,7.30
2023-04-25T05:37:35.002Z,6.80
2023-04-25T05:40:01.888Z,6.70
2023-04-25T05:42:28.697Z,7.40
2023-04-25T05:44:55.591Z,6.70
2023-04-25T05:47:22.473Z,6.43
2023-04-25T05:49:49.229Z,6.73
2023-04-25T05:52:16.080Z,6.70
2023-04-25T05:54:42.855Z,6.30
2023-04-25T05:57:09.854Z,6.10
2023-04-25T05:59:36.710Z,5.87
2023-04-25T06:02:03.610Z,6.20
2023-04-25T06:04:30.661Z,5.30
2023-04-25T06:06:57.576Z,6.17
2023-04-25T06:09:24.530Z,5.40
2023-04-25T06:11:51.283Z,5.80
2023-04-25T06:14:18.712Z,5.93
2023-04-25T06:16:45.519Z,5.17
2023-04-25T06:19:12.358Z,5.17
2023-04-25T06:21:39.153Z,4.83
2023-04-25T06:24:06.330Z,5.17
2023-04-25T06:26:33.160Z,5.80
2023-04-25T06:28:59.964Z,5.00
2023-04-25T06:31:26.831Z,4.83
2023-04-25T06:33:53.818Z,4.77
2023-04-25T06:36:20.699Z,4.13
2023-04-25T06:38:48.011Z,4.53
2023-04-25T06:41:14.991Z,4.27
2023-04-25T06:43:41.896Z,4.77
2023-04-25T06:46:08.835Z,4.00
2023-04-25T06:48:35.671Z,3.40
2023-04-25T06:51:02.548Z,4.13
2023-04-25T06:53:29.477Z,3.10
2023-04-25T06:55:56.399Z,2.87
2023-04-25T06:58:23.337Z,3.10
2023-04-25T07:00:50.249Z,2.90
2023-04-25T07:03:17.389Z,4.20
2023-04-25T07:05:44.736Z,4.00
2023-04-25T07:08:12.022Z,5.20
2023-04-25T07:10:38.967Z,3.10
2023-04-25T07:13:05.888Z,4.57
2023-04-25T07:15:32.725Z,3.80
2023-04-25T07:17:59.612Z,4.23
2023-04-25T07:20:26.784Z,3.90
2023-04-25T07:22:53.653Z,4.77
2023-04-25T07:25:21.511Z,4.20
2023-04-25T07:27:48.452Z,4.33
2023-04-25T07:30:15.908Z,4.33
2023-04-25T07:32:42.717Z,5.00
2023-04-25T07:35:10.089Z,5.10
2023-04-25T07:37:36.951Z,3.60
2023-04-25T07:40:05.400Z,3.60
2023-04-25T07:42:32.367Z,3.40
2023-04-25T07:44:59.556Z,3.77
2023-04-25T07:47:26.648Z,4.60
2023-04-25T07:49:54.019Z,3.80
2023-04-25T07:52:21.162Z,4.10
2023-04-25T07:54:47.997Z,3.17
2023-04-25T07:57:14.995Z,3.00
2023-04-25T07:59:41.901Z,2.73
2023-04-25T08:02:08.782Z,4.00
2023-04-25T08:04:36.673Z,2.90
2023-04-25T08:07:03.796Z,2.97
2023-04-25T08:09:30.708Z,4.00
2023-04-25T08:11:57.526Z,2.90
2023-04-25T08:14:24.400Z,3.53
2023-04-25T08:16:51.202Z,3.20
2023-04-25T08:19:18.020Z,2.60
2023-04-25T08:21:44.934Z,2.50
2023-04-25T08:24:11.781Z,2.70
2023-04-25T08:26:38.708Z,3.83
2023-04-25T08:29:05.632Z,2.53
2023-04-25T08:31:32.572Z,3.30
2023-04-25T08:33:59.382Z,4.07
2023-04-25T08:36:38.570Z,2.90
2023-04-25T08:39:07.266Z,3.50
2023-04-25T08:41:34.603Z,2.53
2023-04-25T08:44:04.483Z,3.30
2023-04-25T08:46:32.534Z,2.37
2023-04-25T08:49:03.179Z,2.77
2023-04-25T08:51:33.579Z,2.83
2023-04-25T08:56:46.642Z,3.30
2023-04-25T08:59:14.062Z,2.53
2023-04-25T09:01:41.610Z,3.23
2023-04-25T09:04:08.681Z,3.27
2023-04-25T09:06:36.622Z,2.83
2023-04-25T09:09:09.440Z,2.70
2023-04-25T09:11:37.928Z,2.73
2023-04-25T09:14:13.474Z,3.47
2023-04-25T09:16:58.747Z,3.37
2023-04-25T09:19:38.681Z,2.60
2023-04-25T09:22:08.718Z,2.73
2023-04-25T09:24:43.803Z,3.03
2023-04-25T09:27:12.997Z,3.07
2023-04-25T09:29:42.187Z,3.07
2023-04-25T09:32:18.664Z,2.97
2023-04-25T09:34:50.445Z,2.40
2023-04-25T09:37:29.024Z,2.87
2023-04-25T09:39:59.757Z,2.37
2023-04-25T09:42:28.879Z,1.93
2023-04-25T09:44:57.723Z,2.30
2023-04-25T09:47:27.168Z,2.17
2023-04-25T09:49:55.240Z,1.90
2023-04-25T09:52:26.115Z,2.10
2023-04-25T09:54:53.940Z,2.30
2023-04-25T09:57:24.020Z,1.97
2023-04-25T09:59:55.977Z,2.10
2023-04-25T10:02:26.625Z,1.90
2023-04-25T10:04:55.882Z,1.77
2023-04-25T10:07:26.747Z,1.40
2023-04-25T10:10:01.287Z,1.47
2023-04-25T10:12:28.585Z,1.80
2023-04-25T10:14:56.518Z,1.47
2023-04-25T10:17:24.590Z,1.53
2023-04-25T10:19:52.365Z,1.63
2023-04-25T10:22:32.310Z,1.70
2023-04-25T10:25:00.026Z,1.80
2023-04-25T10:27:29.266Z,1.57
2023-04-25T10:30:11.271Z,1.87
2023-04-25T10:32:38.478Z,1.87
2023-04-25T10:35:31.666Z,2.30
2023-04-25T10:38:09.960Z,1.63
2023-04-25T10:40:37.753Z,2.73
2023-04-25T10:43:44.836Z,2.27
2023-04-25T10:46:24.246Z,2.43
2023-04-25T10:49:02.213Z,1.87
2023-04-25T10:51:47.305Z,2.40
2023-04-25T10:54:20.378Z,2.10
2023-04-25T10:56:47.235Z,3.77
2023-04-25T10:59:17.612Z,3.77
2023-04-25T11:01:52.505Z,2.93
2023-04-25T11:04:35.530Z,3.33
2023-04-25T11:07:30.422Z,2.90
2023-04-25T11:09:57.323Z,2.37
2023-04-25T11:12:26.216Z,2.10
2023-04-25T11:15:04.345Z,3.10
2023-04-25T11:17:32.189Z,4.20
2023-04-25T11:19:59.833Z,3.20
2023-04-25T11:22:28.842Z,2.70
2023-04-25T11:24:55.711Z,3.40
2023-04-25T11:27:22.728Z,3.53
2023-04-25T11:29:49.557Z,3.47
2023-04-25T11:32:21.481Z,2.90
2023-04-25T11:34:48.717Z,2.97
2023-04-25T11:37:16.715Z,3.13
2023-04-25T11:39:47.020Z,2.57
2023-04-25T11:42:14.291Z,2.83
2023-04-25T11:44:42.111Z,3.40
2023-04-25T11:47:09.036Z,3.50
2023-04-25T11:49:36.925Z,3.43
2023-04-25T11:52:04.172Z,2.50
2023-04-25T11:54:31.006Z,2.77
2023-04-25T11:56:57.876Z,3.10
2023-04-25T11:59:26.311Z,2.47
2023-04-25T12:01:53.576Z,2.43
2023-04-25T12:04:24.490Z,2.10
2023-04-25T12:06:56.325Z,1.90
2023-04-25T12:09:34.887Z,2.27
2023-04-25T12:12:02.840Z,2.00
2023-04-25T12:14:34.903Z,2.43
2023-04-25T12:17:04.987Z,2.00
2023-04-25T12:19:37.262Z,2.30
2023-04-25T12:22:11.581Z,2.83
2023-04-25T12:24:39.495Z,2.50
2023-04-25T12:27:08.749Z,2.30
2023-04-25T12:29:48.856Z,2.40
2023-04-25T12:32:17.825Z,2.03
2023-04-25T12:34:44.998Z,2.47
2023-04-25T12:37:12.352Z,1.70
2023-04-25T12:39:39.217Z,1.10
2023-04-25T12:42:09.265Z,1.03
2023-04-25T12:44:36.556Z,1.10
2023-04-25T12:47:04.262Z,1.00
2023-04-25T12:49:31.830Z,1.23
2023-04-25T12:51:59.685Z,1.20
2023-04-25T12:54:26.630Z,1.73
2023-04-25T12:56:53.732Z,1.23
2023-04-25T12:59:20.587Z,2.37
2023-04-25T13:01:47.597Z,1.70
2023-04-25T13:04:14.521Z,1.70
2023-04-25T13:06:41.505Z,2.30
2023-04-25T13:09:08.553Z,2.40
2023-04-25T13:11:35.518Z,2.33
2023-04-25T13:14:02.479Z,2.60
2023-04-25T13:16:29.422Z,3.07
2023-04-25T13:18:56.528Z,2.13
2023-04-25T13:21:23.346Z,2.87
2023-04-25T13:23:50.207Z,2.70
2023-04-25T13:26:18.051Z,2.30
2023-04-25T13:28:45.086Z,2.93
2023-04-25T13:31:12.234Z,2.83
2023-04-25T13:33:39.132Z,3.00
2023-04-25T13:36:06.143Z,2.80
2023-04-25T13:38:33.068Z,2.37
2023-04-25T13:40:59.872Z,2.43
2023-04-25T13:43:26.755Z,2.20
2023-04-25T13:45:53.688Z,2.70
2023-04-25T13:48:20.575Z,2.47
2023-04-25T13:50:47.419Z,2.10
2023-04-25T13:53:14.400Z,2.17
2023-04-25T13:55:41.320Z,2.30
2023-04-25T13:58:08.674Z,2.60
2023-04-25T14:00:41.703Z,2.60
2023-04-25T14:03:09.276Z,3.33
2023-04-25T14:05:37.561Z,2.60
2023-04-25T14:08:08.952Z,2.73
2023-04-25T14:10:36.956Z,3.00
2023-04-25T14:13:04.924Z,2.23
2023-04-25T14:15:33.265Z,2.77
2023-04-25T14:18:02.134Z,2.43
2023-04-25T14:20:30.864Z,2.30
2023-04-25T14:22:57.728Z,2.50
2023-04-25T14:25:25.620Z,2.90
2023-04-25T14:27:52.562Z,2.60
2023-04-25T14:30:21.228Z,2.33
2023-04-25T14:32:52.256Z,2.63
2023-04-25T14:35:19.487Z,2.10
2023-04-25T14:37:46.731Z,2.90
2023-04-25T14:40:14.838Z,2.53
2023-04-25T14:42:42.168Z,2.83
2023-04-25T14:45:10.040Z,2.80
2023-04-25T14:47:39.861Z,2.50
2023-04-25T14:50:08.280Z,2.60
2023-04-25T14:52:35.350Z,2.33
2023-04-25T14:55:03.187Z,2.50
2023-04-25T14:57:30.028Z,2.03
2023-04-25T14:59:56.913Z,2.40
2023-04-25T15:02:27.770Z,1.97
2023-04-25T15:04:55.730Z,1.50
2023-04-25T15:07:22.851Z,1.53
2023-04-25T15:09:49.754Z,1.50
2023-04-25T15:12:16.609Z,1.47
2023-04-25T15:14:43.452Z,1.50
2023-04-25T15:17:10.345Z,1.50
2023-04-25T15:19:37.217Z,2.03
2023-04-25T15:22:04.064Z,1.90
2023-04-25T15:24:30.997Z,1.90
2023-04-25T15:26:57.857Z,1.80
2023-04-25T15:29:24.939Z,2.00
2023-04-25T15:31:51.846Z,2.30
2023-04-25T15:34:18.778Z,2.20
2023-04-25T15:36:45.698Z,2.60
2023-04-25T15:39:12.523Z,2.70
2023-04-25T15:41:39.397Z,2.03
2023-04-25T15:44:06.203Z,2.20
2023-04-25T15:46:33.235Z,3.20
2023-04-25T15:49:00.150Z,2.93
2023-04-25T15:51:27.367Z,3.20
2023-04-25T15:53:54.412Z,2.90
2023-04-25T15:56:21.741Z,2.30
2023-04-25T15:58:49.008Z,2.33
2023-04-25T16:01:16.140Z,3.90
2023-04-25T16:03:43.073Z,4.17
2023-04-25T16:06:10.164Z,4.50
2023-04-25T16:08:37.298Z,3.53
2023-04-25T16:11:04.185Z,2.63
2023-04-25T16:13:31.228Z,2.17
2023-04-25T16:15:58.157Z,1.80
2023-04-25T16:18:25.193Z,1.87
2023-04-25T16:20:52.161Z,2.00
2023-04-25T16:23:19.216Z,2.13
2023-04-25T16:25:46.104Z,2.30
2023-04-25T16:28:13.061Z,2.00
2023-04-25T16:30:40.076Z,1.97
2023-04-25T16:33:06.939Z,2.40
2023-04-25T16:35:33.990Z,1.93
2023-04-25T16:38:00.945Z,3.27
2023-04-25T16:40:27.818Z,2.70
2023-04-25T16:42:54.668Z,3.13
2023-04-25T16:45:22.115Z,2.33
2023-04-25T16:47:49.083Z,3.20
2023-04-25T16:50:17.166Z,2.83
2023-04-25T16:52:44.617Z,2.10
2023-04-25T16:55:11.900Z,1.93
2023-04-25T16:57:38.789Z,2.10
2023-04-25T17:00:07.688Z,1.93
2023-04-25T17:02:34.718Z,1.90
2023-04-25T17:05:01.793Z,1.60
2023-04-25T17:07:28.625Z,1.90
2023-04-25T17:09:55.621Z,1.90
2023-04-25T17:12:22.614Z,1.50
2023-04-25T17:14:50.405Z,2.30
2023-04-25T17:17:17.267Z,1.47
2023-04-25T17:19:44.700Z,1.50
2023-04-25T17:22:11.615Z,1.67
2023-04-25T17:24:38.462Z,1.40
2023-04-25T17:27:05.318Z,1.30
2023-04-25T17:29:32.307Z,1.57
2023-04-25T17:32:00.784Z,1.57
2023-04-25T17:34:27.696Z,1.30
2023-04-25T17:36:54.680Z,1.50
2023-04-25T17:39:21.498Z,1.50
2023-04-25T17:41:48.810Z,1.40
2023-04-25T17:44:15.639Z,1.70
2023-04-25T17:46:42.568Z,1.80
2023-04-25T17:49:09.760Z,1.43
2023-04-25T17:51:37.907Z,2.33
2023-04-25T17:54:04.825Z,2.20
2023-04-25T17:56:34.027Z,1.93
2023-04-25T17:59:00.940Z,2.40
2023-04-25T18:01:27.810Z,2.60
2023-04-25T18:03:55.066Z,2.60
2023-04-25T18:06:22.045Z,2.40
2023-04-25T18:08:49.401Z,2.33
2023-04-25T18:11:16.617Z,3.03
2023-04-25T18:13:43.499Z,2.57
2023-04-25T18:16:10.423Z,5.50
2023-04-25T18:18:37.408Z,13.47
2023-04-25T18:21:04.327Z,4.10
2023-04-25T18:23:32.069Z,3.90
2023-04-25T18:25:58.947Z,4.47
2023-04-25T18:28:25.968Z,3.53
2023-04-25T18:30:52.865Z,4.60
2023-04-25T18:33:21.035Z,4.00
2023-04-25T18:35:57.569Z,5.20
2023-04-25T18:38:35.652Z,3.00
2023-04-25T18:41:26.977Z,3.30
2023-04-25T18:43:54.774Z,4.00
2023-04-25T18:46:23.054Z,3.73
2023-04-25T18:48:52.250Z,3.53
2023-04-25T18:51:21.650Z,4.30
2023-04-25T18:53:48.483Z,2.83
2023-04-25T18:56:16.099Z,3.73
2023-04-25T18:58:43.279Z,3.77
2023-04-25T19:01:10.489Z,4.03
2023-04-25T19:03:37.841Z,3.90
2023-04-25T19:06:05.168Z,3.87
2023-04-25T19:08:32.010Z,4.17
2023-04-25T19:11:01.095Z,3.83
2023-04-25T19:13:31.997Z,3.67
2023-04-25T19:15:58.888Z,4.50
2023-04-25T19:18:37.161Z,3.87
2023-04-25T19:21:11.774Z,3.70
2023-04-25T19:23:43.563Z,4.80
2023-04-25T19:26:12.941Z,3.53
2023-04-25T19:28:47.344Z,3.03
2023-04-25T19:31:16.200Z,2.47
2023-04-25T19:33:50.578Z,2.90
2023-04-25T19:36:17.595Z,3.03
2023-04-25T19:38:46.573Z,2.93
2023-04-25T19:41:13.520Z,3.40
2023-04-25T19:43:41.055Z,4.00
2023-04-25T19:46:07.980Z,3.90
2023-04-25T19:48:37.385Z,4.00
2023-04-25T19:51:04.454Z,4.00
2023-04-25T19:53:31.527Z,3.60
2023-04-25T19:56:01.341Z,7.13
2023-04-25T19:58:28.197Z,8.27
2023-04-25T20:00:55.234Z,6.93
2023-04-25T20:03:22.148Z,4.20
2023-04-25T20:05:49.720Z,3.10
2023-04-25T20:08:24.744Z,4.00
2023-04-25T20:10:53.205Z,5.00
2023-04-25T20:13:20.141Z,4.83
2023-04-25T20:15:47.199Z,4.97
2023-04-25T20:18:14.178Z,4.10
2023-04-25T20:20:41.249Z,4.30
2023-04-25T20:23:11.240Z,3.53
2023-04-25T20:25:39.007Z,3.63
2023-04-25T20:28:05.904Z,3.80
2023-04-25T20:30:34.847Z,3.20
2023-04-25T20:33:02.186Z,3.00
2023-04-25T20:35:29.274Z,3.70
2023-04-25T20:37:56.116Z,3.80
2023-04-25T20:40:23.052Z,3.57
2023-04-25T20:42:50.019Z,3.20
2023-04-25T20:45:16.962Z,4.67
2023-04-25T20:47:43.924Z,3.97
2023-04-25T20:50:11.347Z,3.90
2023-04-25T20:52:38.161Z,3.23
2023-04-25T20:55:07.183Z,3.87
2023-04-25T20:57:34.216Z,3.50
2023-04-25T21:00:01.060Z,3.17
2023-04-25T21:02:30.177Z,3.60
2023-04-25T21:04:57.263Z,3.77
2023-04-25T21:07:24.147Z,3.40
2023-04-25T21:09:51.411Z,3.50
2023-04-25T21:12:18.187Z,3.60
2023-04-25T21:14:45.069Z,4.50
2023-04-25T21:17:12.011Z,4.33
2023-04-25T21:19:38.990Z,4.43
2023-04-25T21:22:05.912Z,5.27
2023-04-25T21:24:33.121Z,3.80
2023-04-25T21:27:00.172Z,4.17
2023-04-25T21:29:27.006Z,4.87
2023-04-25T21:31:54.052Z,4.70
2023-04-25T21:34:20.946Z,5.43
2023-04-25T21:36:47.862Z,5.10
2023-04-25T21:39:14.792Z,5.27
2023-04-25T21:41:41.906Z,5.40
2023-04-25T21:44:08.713Z,4.70
2023-04-25T21:46:35.677Z,5.30
2023-04-25T21:49:02.557Z,6.63
2023-04-25T21:51:29.503Z,5.53
2023-04-25T21:53:56.463Z,6.20
2023-04-25T21:56:23.379Z,6.23
2023-04-25T21:58:50.744Z,5.70
2023-04-25T22:01:18.116Z,6.70
2023-04-25T22:03:45.377Z,5.90
2023-04-25T22:06:12.732Z,6.40
2023-04-25T22:08:39.589Z,6.40
2023-04-25T22:11:07.496Z,6.73
2023-04-25T22:13:34.377Z,7.07
2023-04-25T22:16:01.314Z,7.60
2023-04-25T22:18:28.235Z,7.73
2023-04-25T22:20:55.184Z,7.60
2023-04-25T22:23:22.078Z,7.07
2023-04-25T22:25:48.880Z,7.03
2023-04-25T22:28:15.861Z,7.37
2023-04-25T22:30:42.759Z,6.43
2023-04-25T22:33:09.681Z,7.00
2023-04-25T22:35:36.610Z,7.87
2023-04-25T22:38:03.407Z,7.57
2023-04-25T22:40:30.596Z,7.00
2023-04-25T22:42:57.396Z,6.27
2023-04-25T22:45:24.226Z,6.73
2023-04-25T22:47:51.266Z,7.30
2023-04-25T22:50:18.292Z,7.13
2023-04-25T22:52:47.004Z,6.43
2023-04-25T22:55:14.052Z,6.57
2023-04-25T22:57:41.680Z,6.13
2023-04-25T23:00:10.041Z,6.30
2023-04-25T23:02:36.985Z,7.00
2023-04-25T23:05:04.137Z,8.13
2023-04-25T23:07:31.038Z,7.13
2023-04-25T23:09:57.963Z,6.47
2023-04-25T23:12:24.850Z,6.97
2023-04-25T23:14:52.296Z,7.30
2023-04-25T23:17:19.290Z,6.50
2023-04-25T23:19:46.829Z,6.40
2023-04-25T23:22:13.662Z,7.90
2023-04-25T23:24:40.567Z,6.77
2023-04-25T23:27:07.406Z,7.20
2023-04-25T23:29:34.229Z,7.97
2023-04-25T23:32:01.340Z,6.80
2023-04-25T23:34:33.867Z,8.00
2023-04-25T23:37:01.016Z,7.43
2023-04-25T23:39:28.725Z,7.80
2023-04-25T23:41:56.216Z,6.90
2023-04-25T23:44:23.646Z,7.87
2023-04-25T23:46:50.486Z,7.20
2023-04-25T23:49:17.384Z,7.70
2023-04-25T23:51:44.391Z,7.77
2023-04-25T23:54:11.252Z,9.07
2023-04-25T23:56:38.113Z,8.50
2023-04-25T23:59:05.046Z,8.77
